Juliaca, Juliaca Inca Manco Capac International Airport (SPJL)

NameJuliaca Inca Manco Capac International Airport
CityJuliaca
CountryPeru
ICAOSPJL
IATAJUL
Altitude3826 m
CoordinatesGoogle Map
Live Air TrafficLiveATC.net
METARSPJL 191500Z 01003KT 9999 SCT020 13/01 Q1036 RMK PP000
2019-03-19 15:00:00 Wind: North (10°) 1.54 m/s - Visibility: > 10000 m - Temperature: 13 °C - Dew point: 1 °C - Humidity: 44.2% - Pressure: 1036 hPa
Statistics

The table below shows the detailed information of all flights to/from Juliaca, Juliaca Inca Manco Capac International Airport (SPJL).